sensor_id;sensor_type;location;lat;lon;timestamp;temperature;humidity
15630;DHT22;7914;50.842;0.166;2023-02-01T00:00:19;5.30;13.10
15630;DHT22;7914;50.842;0.166;2023-02-01T00:02:45;5.20;14.50
15630;DHT22;7914;50.842;0.166;2023-02-01T00:05:11;5.20;36.40
15630;DHT22;7914;50.842;0.166;2023-02-01T00:07:37;5.10;41.10
15630;DHT22;7914;50.842;0.166;2023-02-01T00:10:04;5.00;99.90
15630;DHT22;7914;50.842;0.166;2023-02-01T00:12:31;5.00;99.90
15630;DHT22;7914;50.842;0.166;2023-02-01T00:14:57;5.00;99.90
15630;DHT22;7914;50.842;0.166;2023-02-01T00:17:23;5.00;99.90
15630;DHT22;7914;50.842;0.166;2023-02-01T00:19:48;5.00;99.90
15630;DHT22;7914;50.842;0.166;2023-02-01T00:22:14;4.90;99.90
15630;DHT22;7914;50.842;0.166;2023-02-01T00:24:40;4.90;99.90
15630;DHT22;7914;50.842;0.166;2023-02-01T00:27:05;4.90;99.90
15630;DHT22;7914;50.842;0.166;2023-02-01T00:29:31;5.00;99.90
15630;DHT22;7914;50.842;0.166;2023-02-01T00:31:57;4.90;99.90
15630;DHT22;7914;50.842;0.166;2023-02-01T00:34:22;4.90;99.90
15630;DHT22;7914;50.842;0.166;2023-02-01T00:36:48;4.90;99.90
15630;DHT22;7914;50.842;0.166;2023-02-01T00:39:15;5.10;99.90
15630;DHT22;7914;50.842;0.166;2023-02-01T00:41:41;4.90;77.90
15630;DHT22;7914;50.842;0.166;2023-02-01T00:44:07;4.90;27.90
15630;DHT22;7914;50.842;0.166;2023-02-01T00:46:32;4.90;15.80
15630;DHT22;7914;50.842;0.166;2023-02-01T00:48:58;4.90;1.00
15630;DHT22;7914;50.842;0.166;2023-02-01T00:51:27;4.90;9.10
15630;DHT22;7914;50.842;0.166;2023-02-01T00:53:53;4.90;1.00
15630;DHT22;7914;50.842;0.166;2023-02-01T00:56:20;4.90;11.80
15630;DHT22;7914;50.842;0.166;2023-02-01T00:58:46;4.80;13.70
15630;DHT22;7914;50.842;0.166;2023-02-01T01:03:42;4.80;49.10
15630;DHT22;7914;50.842;0.166;2023-02-01T01:06:14;4.80;98.20
15630;DHT22;7914;50.842;0.166;2023-02-01T01:08:40;4.80;85.60
15630;DHT22;7914;50.842;0.166;2023-02-01T01:11:08;4.80;68.80
15630;DHT22;7914;50.842;0.166;2023-02-01T01:13:34;4.80;99.90
15630;DHT22;7914;50.842;0.166;2023-02-01T01:16:02;4.70;99.70
15630;DHT22;7914;50.842;0.166;2023-02-01T01:18:28;4.70;99.90
15630;DHT22;7914;50.842;0.166;2023-02-01T01:20:55;4.70;99.90
15630;DHT22;7914;50.842;0.166;2023-02-01T01:23:20;4.80;99.90
15630;DHT22;7914;50.842;0.166;2023-02-01T01:25:46;4.60;99.90
15630;DHT22;7914;50.842;0.166;2023-02-01T01:28:12;4.50;99.90
15630;DHT22;7914;50.842;0.166;2023-02-01T01:30:38;4.50;99.90
15630;DHT22;7914;50.842;0.166;2023-02-01T01:33:04;4.50;99.90
15630;DHT22;7914;50.842;0.166;2023-02-01T01:35:31;4.40;99.90
15630;DHT22;7914;50.842;0.166;2023-02-01T01:37:57;4.30;99.90
15630;DHT22;7914;50.842;0.166;2023-02-01T01:40:23;4.20;99.90
15630;DHT22;7914;50.842;0.166;2023-02-01T01:42:49;4.20;99.90
15630;DHT22;7914;50.842;0.166;2023-02-01T01:45:29;4.20;99.90
15630;DHT22;7914;50.842;0.166;2023-02-01T01:47:58;4.10;99.90
15630;DHT22;7914;50.842;0.166;2023-02-01T01:50:28;4.10;99.90
15630;DHT22;7914;50.842;0.166;2023-02-01T01:52:56;4.00;99.90
15630;DHT22;7914;50.842;0.166;2023-02-01T01:55:24;4.10;99.90
15630;DHT22;7914;50.842;0.166;2023-02-01T01:57:57;4.10;99.90
15630;DHT22;7914;50.842;0.166;2023-02-01T02:00:24;4.10;99.90
15630;DHT22;7914;50.842;0.166;2023-02-01T02:02:54;4.20;99.90
15630;DHT22;7914;50.842;0.166;2023-02-01T02:05:22;4.30;99.90
15630;DHT22;7914;50.842;0.166;2023-02-01T02:07:49;4.30;99.90
15630;DHT22;7914;50.842;0.166;2023-02-01T02:10:16;4.30;99.90
15630;DHT22;7914;50.842;0.166;2023-02-01T02:12:44;4.30;99.90
15630;DHT22;7914;50.842;0.166;2023-02-01T02:15:13;4.40;99.90
15630;DHT22;7914;50.842;0.166;2023-02-01T02:18:03;4.40;99.90
15630;DHT22;7914;50.842;0.166;2023-02-01T02:23:33;4.50;99.90
15630;DHT22;7914;50.842;0.166;2023-02-01T02:35:16;4.60;99.90
15630;DHT22;7914;50.842;0.166;2023-02-01T02:37:53;4.60;99.90
15630;DHT22;7914;50.842;0.166;2023-02-01T02:40:32;4.60;60.80
15630;DHT22;7914;50.842;0.166;2023-02-01T02:43:09;4.70;56.40
15630;DHT22;7914;50.842;0.166;2023-02-01T02:49:10;4.60;42.40
15630;DHT22;7914;50.842;0.166;2023-02-01T02:52:05;4.60;36.80
15630;DHT22;7914;50.842;0.166;2023-02-01T02:54:54;4.60;55.40
15630;DHT22;7914;50.842;0.166;2023-02-01T03:00:13;5.50;15.20
15630;DHT22;7914;50.842;0.166;2023-02-01T03:02:59;4.80;1.00
15630;DHT22;7914;50.842;0.166;2023-02-01T03:05:46;4.90;1.00
15630;DHT22;7914;50.842;0.166;2023-02-01T03:08:15;4.90;1.00
15630;DHT22;7914;50.842;0.166;2023-02-01T03:10:51;4.90;1.00
15630;DHT22;7914;50.842;0.166;2023-02-01T03:16:45;5.00;1.00
15630;DHT22;7914;50.842;0.166;2023-02-01T03:21:50;5.00;1.00
15630;DHT22;7914;50.842;0.166;2023-02-01T03:27:23;5.00;1.00
15630;DHT22;7914;50.842;0.166;2023-02-01T03:32:31;5.10;1.00
15630;DHT22;7914;50.842;0.166;2023-02-01T03:35:18;5.10;1.00
15630;DHT22;7914;50.842;0.166;2023-02-01T03:37:44;5.10;1.00
15630;DHT22;7914;50.842;0.166;2023-02-01T03:40:13;5.10;1.00
15630;DHT22;7914;50.842;0.166;2023-02-01T03:42:47;5.10;1.00
15630;DHT22;7914;50.842;0.166;2023-02-01T03:45:21;5.10;1.00
15630;DHT22;7914;50.842;0.166;2023-02-01T03:47:49;5.10;1.00
15630;DHT22;7914;50.842;0.166;2023-02-01T03:50:19;5.10;1.00
15630;DHT22;7914;50.842;0.166;2023-02-01T03:53:05;5.00;1.00
15630;DHT22;7914;50.842;0.166;2023-02-01T03:55:32;5.00;1.00
15630;DHT22;7914;50.842;0.166;2023-02-01T03:58:19;5.10;1.00
15630;DHT22;7914;50.842;0.166;2023-02-01T04:00:56;5.10;1.00
15630;DHT22;7914;50.842;0.166;2023-02-01T04:03:23;5.00;1.00
15630;DHT22;7914;50.842;0.166;2023-02-01T04:05:50;5.10;1.00
15630;DHT22;7914;50.842;0.166;2023-02-01T04:08:18;5.00;1.00
15630;DHT22;7914;50.842;0.166;2023-02-01T04:10:44;5.00;1.00
15630;DHT22;7914;50.842;0.166;2023-02-01T04:13:10;5.00;1.00
15630;DHT22;7914;50.842;0.166;2023-02-01T04:15:36;5.00;1.00
15630;DHT22;7914;50.842;0.166;2023-02-01T04:18:01;5.00;1.00
15630;DHT22;7914;50.842;0.166;2023-02-01T04:20:27;5.20;1.00
15630;DHT22;7914;50.842;0.166;2023-02-01T04:22:53;4.90;1.00
15630;DHT22;7914;50.842;0.166;2023-02-01T04:25:19;4.90;1.00
15630;DHT22;7914;50.842;0.166;2023-02-01T04:27:44;4.90;1.00
15630;DHT22;7914;50.842;0.166;2023-02-01T04:30:11;4.90;1.00
15630;DHT22;7914;50.842;0.166;2023-02-01T04:32:38;5.00;1.00
15630;DHT22;7914;50.842;0.166;2023-02-01T04:35:04;5.10;1.00
15630;DHT22;7914;50.842;0.166;2023-02-01T04:37:30;5.00;1.00
15630;DHT22;7914;50.842;0.166;2023-02-01T04:39:56;5.00;1.00
15630;DHT22;7914;50.842;0.166;2023-02-01T04:42:21;4.90;1.00
15630;DHT22;7914;50.842;0.166;2023-02-01T04:44:47;4.90;1.00
15630;DHT22;7914;50.842;0.166;2023-02-01T04:47:13;4.90;1.00
15630;DHT22;7914;50.842;0.166;2023-02-01T04:49:39;5.00;1.00
15630;DHT22;7914;50.842;0.166;2023-02-01T04:52:05;5.00;1.00
15630;DHT22;7914;50.842;0.166;2023-02-01T04:54:31;4.90;1.00
15630;DHT22;7914;50.842;0.166;2023-02-01T04:56:56;4.90;1.00
15630;DHT22;7914;50.842;0.166;2023-02-01T04:59:22;5.00;1.00
15630;DHT22;7914;50.842;0.166;2023-02-01T05:01:48;5.00;1.00
15630;DHT22;7914;50.842;0.166;2023-02-01T05:04:13;4.90;1.00
15630;DHT22;7914;50.842;0.166;2023-02-01T05:06:39;4.90;1.00
15630;DHT22;7914;50.842;0.166;2023-02-01T05:09:05;4.90;1.00
15630;DHT22;7914;50.842;0.166;2023-02-01T05:11:30;4.90;1.00
15630;DHT22;7914;50.842;0.166;2023-02-01T05:14:15;4.90;1.00
15630;DHT22;7914;50.842;0.166;2023-02-01T05:16:40;4.90;1.00
15630;DHT22;7914;50.842;0.166;2023-02-01T05:19:06;4.90;1.00
15630;DHT22;7914;50.842;0.166;2023-02-01T05:21:32;4.90;1.00
15630;DHT22;7914;50.842;0.166;2023-02-01T05:23:57;4.90;1.00
15630;DHT22;7914;50.842;0.166;2023-02-01T05:26:39;4.90;1.00
15630;DHT22;7914;50.842;0.166;2023-02-01T05:29:06;5.00;1.00
15630;DHT22;7914;50.842;0.166;2023-02-01T05:31:31;4.90;1.00
15630;DHT22;7914;50.842;0.166;2023-02-01T05:34:00;5.00;1.00
15630;DHT22;7914;50.842;0.166;2023-02-01T05:36:25;5.00;1.00
15630;DHT22;7914;50.842;0.166;2023-02-01T05:38:51;5.00;1.00
15630;DHT22;7914;50.842;0.166;2023-02-01T05:41:17;5.00;1.00
15630;DHT22;7914;50.842;0.166;2023-02-01T05:43:42;5.00;1.00
15630;DHT22;7914;50.842;0.166;2023-02-01T05:46:08;5.00;1.00
15630;DHT22;7914;50.842;0.166;2023-02-01T05:48:38;5.10;1.00
15630;DHT22;7914;50.842;0.166;2023-02-01T05:51:04;5.10;1.00
15630;DHT22;7914;50.842;0.166;2023-02-01T05:53:30;5.10;1.00
15630;DHT22;7914;50.842;0.166;2023-02-01T05:55:55;5.10;1.00
15630;DHT22;7914;50.842;0.166;2023-02-01T05:58:21;5.10;1.00
15630;DHT22;7914;50.842;0.166;2023-02-01T06:00:46;5.10;1.00
15630;DHT22;7914;50.842;0.166;2023-02-01T06:03:12;5.00;1.00
15630;DHT22;7914;50.842;0.166;2023-02-01T06:05:38;5.00;1.00
15630;DHT22;7914;50.842;0.166;2023-02-01T06:08:03;5.10;1.00
15630;DHT22;7914;50.842;0.166;2023-02-01T06:10:29;5.10;1.00
15630;DHT22;7914;50.842;0.166;2023-02-01T06:12:55;5.00;1.00
15630;DHT22;7914;50.842;0.166;2023-02-01T06:15:21;5.10;1.00
15630;DHT22;7914;50.842;0.166;2023-02-01T06:17:46;5.10;1.00
15630;DHT22;7914;50.842;0.166;2023-02-01T06:20:14;5.10;1.00
15630;DHT22;7914;50.842;0.166;2023-02-01T06:22:40;5.10;1.00
15630;DHT22;7914;50.842;0.166;2023-02-01T06:25:07;5.10;1.00
15630;DHT22;7914;50.842;0.166;2023-02-01T06:27:34;5.00;1.00
15630;DHT22;7914;50.842;0.166;2023-02-01T06:29:59;4.90;1.00
15630;DHT22;7914;50.842;0.166;2023-02-01T06:32:25;4.90;1.00
15630;DHT22;7914;50.842;0.166;2023-02-01T06:34:51;4.90;1.00
15630;DHT22;7914;50.842;0.166;2023-02-01T06:37:21;4.90;1.00
15630;DHT22;7914;50.842;0.166;2023-02-01T06:39:48;4.90;1.00
15630;DHT22;7914;50.842;0.166;2023-02-01T06:42:14;5.00;1.00
15630;DHT22;7914;50.842;0.166;2023-02-01T06:44:40;5.00;1.00
15630;DHT22;7914;50.842;0.166;2023-02-01T06:47:06;5.20;1.00
15630;DHT22;7914;50.842;0.166;2023-02-01T06:49:31;5.10;1.00
15630;DHT22;7914;50.842;0.166;2023-02-01T06:51:57;5.10;1.00
15630;DHT22;7914;50.842;0.166;2023-02-01T06:54:28;5.20;1.00
15630;DHT22;7914;50.842;0.166;2023-02-01T06:56:57;5.20;1.00
15630;DHT22;7914;50.842;0.166;2023-02-01T06:59:23;5.20;1.00
15630;DHT22;7914;50.842;0.166;2023-02-01T07:01:49;5.70;1.00
15630;DHT22;7914;50.842;0.166;2023-02-01T07:04:15;5.40;1.00
15630;DHT22;7914;50.842;0.166;2023-02-01T07:06:41;5.40;1.00
15630;DHT22;7914;50.842;0.166;2023-02-01T07:09:07;5.50;1.00
15630;DHT22;7914;50.842;0.166;2023-02-01T07:11:34;5.60;1.00
15630;DHT22;7914;50.842;0.166;2023-02-01T07:13:59;5.60;1.00
15630;DHT22;7914;50.842;0.166;2023-02-01T07:16:25;5.60;1.00
15630;DHT22;7914;50.842;0.166;2023-02-01T07:18:52;5.60;1.00
15630;DHT22;7914;50.842;0.166;2023-02-01T07:21:19;5.50;1.00
15630;DHT22;7914;50.842;0.166;2023-02-01T07:23:45;5.60;1.00
15630;DHT22;7914;50.842;0.166;2023-02-01T07:26:13;5.50;1.00
15630;DHT22;7914;50.842;0.166;2023-02-01T07:28:39;5.50;1.00
15630;DHT22;7914;50.842;0.166;2023-02-01T07:31:06;5.50;1.00
15630;DHT22;7914;50.842;0.166;2023-02-01T07:33:33;5.50;1.00
15630;DHT22;7914;50.842;0.166;2023-02-01T07:36:01;5.50;1.00
15630;DHT22;7914;50.842;0.166;2023-02-01T07:38:27;5.40;1.00
15630;DHT22;7914;50.842;0.166;2023-02-01T07:41:01;5.40;1.00
15630;DHT22;7914;50.842;0.166;2023-02-01T07:43:28;5.40;1.00
15630;DHT22;7914;50.842;0.166;2023-02-01T07:45:55;5.40;1.00
15630;DHT22;7914;50.842;0.166;2023-02-01T07:48:21;5.40;1.00
15630;DHT22;7914;50.842;0.166;2023-02-01T07:50:48;5.40;1.00
15630;DHT22;7914;50.842;0.166;2023-02-01T07:53:14;5.40;1.00
15630;DHT22;7914;50.842;0.166;2023-02-01T07:55:40;5.40;1.00
15630;DHT22;7914;50.842;0.166;2023-02-01T07:58:06;5.60;1.00
15630;DHT22;7914;50.842;0.166;2023-02-01T08:00:32;5.50;1.00
15630;DHT22;7914;50.842;0.166;2023-02-01T08:03:16;5.50;1.00
15630;DHT22;7914;50.842;0.166;2023-02-01T08:05:42;5.60;1.00
15630;DHT22;7914;50.842;0.166;2023-02-01T08:08:08;5.60;1.00
15630;DHT22;7914;50.842;0.166;2023-02-01T08:10:34;5.80;1.00
15630;DHT22;7914;50.842;0.166;2023-02-01T08:13:01;6.40;1.00
15630;DHT22;7914;50.842;0.166;2023-02-01T08:15:28;5.80;1.00
15630;DHT22;7914;50.842;0.166;2023-02-01T08:17:53;5.80;1.00
15630;DHT22;7914;50.842;0.166;2023-02-01T08:20:24;5.80;1.00
15630;DHT22;7914;50.842;0.166;2023-02-01T08:22:51;5.90;1.00
15630;DHT22;7914;50.842;0.166;2023-02-01T08:25:17;5.90;1.00
15630;DHT22;7914;50.842;0.166;2023-02-01T08:27:43;5.90;1.00
15630;DHT22;7914;50.842;0.166;2023-02-01T08:30:10;5.90;1.00
15630;DHT22;7914;50.842;0.166;2023-02-01T08:32:35;6.00;1.00
15630;DHT22;7914;50.842;0.166;2023-02-01T08:35:02;6.10;1.00
15630;DHT22;7914;50.842;0.166;2023-02-01T08:37:28;6.20;1.00
15630;DHT22;7914;50.842;0.166;2023-02-01T08:39:54;6.10;1.00
15630;DHT22;7914;50.842;0.166;2023-02-01T08:42:20;6.50;1.00
15630;DHT22;7914;50.842;0.166;2023-02-01T08:45:05;6.50;1.00
15630;DHT22;7914;50.842;0.166;2023-02-01T08:47:33;6.60;1.00
15630;DHT22;7914;50.842;0.166;2023-02-01T08:50:00;6.60;1.00
15630;DHT22;7914;50.842;0.166;2023-02-01T08:52:26;6.60;1.00
15630;DHT22;7914;50.842;0.166;2023-02-01T08:54:51;6.60;1.00
15630;DHT22;7914;50.842;0.166;2023-02-01T08:57:17;6.70;1.00
15630;DHT22;7914;50.842;0.166;2023-02-01T08:59:43;6.70;1.00
15630;DHT22;7914;50.842;0.166;2023-02-01T09:02:13;6.60;1.00
15630;DHT22;7914;50.842;0.166;2023-02-01T09:04:40;6.60;1.00
15630;DHT22;7914;50.842;0.166;2023-02-01T09:07:06;6.70;1.00
15630;DHT22;7914;50.842;0.166;2023-02-01T09:09:32;6.90;1.00
15630;DHT22;7914;50.842;0.166;2023-02-01T09:11:58;7.10;1.00
15630;DHT22;7914;50.842;0.166;2023-02-01T09:14:24;7.30;1.00
15630;DHT22;7914;50.842;0.166;2023-02-01T09:16:49;7.50;1.00
15630;DHT22;7914;50.842;0.166;2023-02-01T09:19:15;7.40;99.90
15630;DHT22;7914;50.842;0.166;2023-02-01T09:21:41;7.60;99.90
15630;DHT22;7914;50.842;0.166;2023-02-01T09:24:08;7.60;99.90
15630;DHT22;7914;50.842;0.166;2023-02-01T09:26:33;7.70;99.90
15630;DHT22;7914;50.842;0.166;2023-02-01T09:29:00;7.60;99.90
15630;DHT22;7914;50.842;0.166;2023-02-01T09:31:26;7.70;99.90
15630;DHT22;7914;50.842;0.166;2023-02-01T09:33:51;7.90;99.90
15630;DHT22;7914;50.842;0.166;2023-02-01T09:36:17;7.60;99.90
15630;DHT22;7914;50.842;0.166;2023-02-01T09:38:45;7.50;99.90
15630;DHT22;7914;50.842;0.166;2023-02-01T09:43:56;7.40;99.90
15630;DHT22;7914;50.842;0.166;2023-02-01T09:46:30;7.50;99.90
15630;DHT22;7914;50.842;0.166;2023-02-01T09:49:00;7.60;99.90
15630;DHT22;7914;50.842;0.166;2023-02-01T09:51:42;7.60;99.90
15630;DHT22;7914;50.842;0.166;2023-02-01T09:54:16;7.80;99.90
15630;DHT22;7914;50.842;0.166;2023-02-01T09:59:29;8.00;99.90
15630;DHT22;7914;50.842;0.166;2023-02-01T10:01:57;8.00;99.90
15630;DHT22;7914;50.842;0.166;2023-02-01T10:04:25;8.00;99.90
15630;DHT22;7914;50.842;0.166;2023-02-01T10:09:52;8.10;99.90
15630;DHT22;7914;50.842;0.166;2023-02-01T10:15:34;8.20;99.90
15630;DHT22;7914;50.842;0.166;2023-02-01T10:26:19;8.40;99.90
15630;DHT22;7914;50.842;0.166;2023-02-01T10:29:08;8.50;99.90
15630;DHT22;7914;50.842;0.166;2023-02-01T10:31:39;8.60;99.90
15630;DHT22;7914;50.842;0.166;2023-02-01T10:34:55;8.70;99.90
15630;DHT22;7914;50.842;0.166;2023-02-01T10:39:54;8.70;99.90
15630;DHT22;7914;50.842;0.166;2023-02-01T10:42:23;8.70;99.90
15630;DHT22;7914;50.842;0.166;2023-02-01T10:44:49;8.70;99.90
15630;DHT22;7914;50.842;0.166;2023-02-01T10:47:15;8.60;99.90
15630;DHT22;7914;50.842;0.166;2023-02-01T10:49:58;8.60;99.90
15630;DHT22;7914;50.842;0.166;2023-02-01T10:55:32;8.80;99.90
15630;DHT22;7914;50.842;0.166;2023-02-01T10:58:00;9.00;99.90
15630;DHT22;7914;50.842;0.166;2023-02-01T11:00:27;9.20;99.90
15630;DHT22;7914;50.842;0.166;2023-02-01T11:02:54;9.30;21.00
15630;DHT22;7914;50.842;0.166;2023-02-01T11:05:20;9.40;1.00
15630;DHT22;7914;50.842;0.166;2023-02-01T11:07:53;9.50;1.00
15630;DHT22;7914;50.842;0.166;2023-02-01T11:10:40;9.60;1.00
15630;DHT22;7914;50.842;0.166;2023-02-01T11:13:17;9.70;1.00
15630;DHT22;7914;50.842;0.166;2023-02-01T11:15:55;9.90;1.00
15630;DHT22;7914;50.842;0.166;2023-02-01T11:18:27;10.00;1.00
15630;DHT22;7914;50.842;0.166;2023-02-01T11:20:53;10.10;1.00
15630;DHT22;7914;50.842;0.166;2023-02-01T11:23:25;10.10;99.90
15630;DHT22;7914;50.842;0.166;2023-02-01T11:25:58;10.20;99.90
15630;DHT22;7914;50.842;0.166;2023-02-01T11:28:26;10.20;99.90
15630;DHT22;7914;50.842;0.166;2023-02-01T11:30:55;10.30;99.90
15630;DHT22;7914;50.842;0.166;2023-02-01T11:33:27;10.30;99.90
15630;DHT22;7914;50.842;0.166;2023-02-01T11:35:59;10.50;99.90
15630;DHT22;7914;50.842;0.166;2023-02-01T11:38:30;10.30;99.90
15630;DHT22;7914;50.842;0.166;2023-02-01T11:41:14;10.30;99.90
15630;DHT22;7914;50.842;0.166;2023-02-01T11:43:56;10.30;1.00
15630;DHT22;7914;50.842;0.166;2023-02-01T11:46:31;10.40;1.00
15630;DHT22;7914;50.842;0.166;2023-02-01T11:49:18;10.40;1.00
15630;DHT22;7914;50.842;0.166;2023-02-01T11:52:09;10.50;1.00
15630;DHT22;7914;50.842;0.166;2023-02-01T11:54:55;10.70;1.00
15630;DHT22;7914;50.842;0.166;2023-02-01T12:08:01;11.00;99.90
15630;DHT22;7914;50.842;0.166;2023-02-01T12:16:17;10.90;99.90
15630;DHT22;7914;50.842;0.166;2023-02-01T12:21:24;10.80;1.00
15630;DHT22;7914;50.842;0.166;2023-02-01T12:24:06;10.90;1.00
15630;DHT22;7914;50.842;0.166;2023-02-01T12:37:20;10.90;1.00
15630;DHT22;7914;50.842;0.166;2023-02-01T12:42:31;10.60;1.00
15630;DHT22;7914;50.842;0.166;2023-02-01T12:45:06;10.50;1.00
15630;DHT22;7914;50.842;0.166;2023-02-01T12:47:49;10.50;1.00
15630;DHT22;7914;50.842;0.166;2023-02-01T12:50:20;10.40;1.00
15630;DHT22;7914;50.842;0.166;2023-02-01T12:52:51;10.20;1.00
15630;DHT22;7914;50.842;0.166;2023-02-01T12:55:34;10.20;1.00
15630;DHT22;7914;50.842;0.166;2023-02-01T12:58:20;10.10;1.00
15630;DHT22;7914;50.842;0.166;2023-02-01T13:01:02;10.10;1.00
15630;DHT22;7914;50.842;0.166;2023-02-01T13:03:40;10.20;10.00
15630;DHT22;7914;50.842;0.166;2023-02-01T13:06:17;10.30;1.00
15630;DHT22;7914;50.842;0.166;2023-02-01T13:11:35;10.50;1.00
15630;DHT22;7914;50.842;0.166;2023-02-01T13:14:16;10.60;1.00
15630;DHT22;7914;50.842;0.166;2023-02-01T13:16:48;10.70;1.00
15630;DHT22;7914;50.842;0.166;2023-02-01T13:19:26;10.80;1.00
15630;DHT22;7914;50.842;0.166;2023-02-01T13:22:05;10.70;1.00
15630;DHT22;7914;50.842;0.166;2023-02-01T13:24:55;10.60;24.40
15630;DHT22;7914;50.842;0.166;2023-02-01T13:27:22;10.70;31.70
15630;DHT22;7914;50.842;0.166;2023-02-01T13:29:56;10.80;32.90
15630;DHT22;7914;50.842;0.166;2023-02-01T13:35:45;11.20;1.00
15630;DHT22;7914;50.842;0.166;2023-02-01T13:41:35;11.50;26.10
15630;DHT22;7914;50.842;0.166;2023-02-01T13:44:13;11.60;1.00
15630;DHT22;7914;50.842;0.166;2023-02-01T13:46:43;11.50;1.00
15630;DHT22;7914;50.842;0.166;2023-02-01T13:49:24;11.50;1.00
15630;DHT22;7914;50.842;0.166;2023-02-01T13:51:53;11.30;99.90
15630;DHT22;7914;50.842;0.166;2023-02-01T13:54:39;11.20;1.00
15630;DHT22;7914;50.842;0.166;2023-02-01T13:57:33;11.00;99.90
15630;DHT22;7914;50.842;0.166;2023-02-01T14:10:54;10.50;1.00
15630;DHT22;7914;50.842;0.166;2023-02-01T14:13:40;10.50;1.00
15630;DHT22;7914;50.842;0.166;2023-02-01T14:21:32;10.30;1.00
15630;DHT22;7914;50.842;0.166;2023-02-01T14:26:45;10.20;1.00
15630;DHT22;7914;50.842;0.166;2023-02-01T14:31:42;10.30;1.00
15630;DHT22;7914;50.842;0.166;2023-02-01T14:34:29;10.30;1.00
15630;DHT22;7914;50.842;0.166;2023-02-01T14:37:05;10.30;99.90
15630;DHT22;7914;50.842;0.166;2023-02-01T14:39:36;10.30;99.90
15630;DHT22;7914;50.842;0.166;2023-02-01T14:42:21;10.40;99.90
15630;DHT22;7914;50.842;0.166;2023-02-01T14:44:48;10.40;1.00
15630;DHT22;7914;50.842;0.166;2023-02-01T14:49:54;10.50;42.80
15630;DHT22;7914;50.842;0.166;2023-02-01T14:52:23;10.50;1.00
15630;DHT22;7914;50.842;0.166;2023-02-01T14:54:56;10.50;91.80
15630;DHT22;7914;50.842;0.166;2023-02-01T14:57:26;10.40;1.00
15630;DHT22;7914;50.842;0.166;2023-02-01T14:59:59;10.40;1.00
15630;DHT22;7914;50.842;0.166;2023-02-01T15:02:30;10.40;1.00
15630;DHT22;7914;50.842;0.166;2023-02-01T15:04:59;10.30;1.00
15630;DHT22;7914;50.842;0.166;2023-02-01T15:07:26;10.30;1.00
15630;DHT22;7914;50.842;0.166;2023-02-01T15:09:54;10.40;1.00
15630;DHT22;7914;50.842;0.166;2023-02-01T15:12:26;10.40;1.00
15630;DHT22;7914;50.842;0.166;2023-02-01T15:15:17;10.40;1.00
15630;DHT22;7914;50.842;0.166;2023-02-01T15:17:55;10.40;99.90
15630;DHT22;7914;50.842;0.166;2023-02-01T15:20:27;10.40;1.00
15630;DHT22;7914;50.842;0.166;2023-02-01T15:23:01;10.40;1.00
15630;DHT22;7914;50.842;0.166;2023-02-01T15:25:30;10.30;1.00
15630;DHT22;7914;50.842;0.166;2023-02-01T15:27:56;10.30;1.00
15630;DHT22;7914;50.842;0.166;2023-02-01T15:30:28;10.30;99.90
15630;DHT22;7914;50.842;0.166;2023-02-01T15:35:54;10.10;1.00
15630;DHT22;7914;50.842;0.166;2023-02-01T15:44:03;10.00;20.00
15630;DHT22;7914;50.842;0.166;2023-02-01T15:46:40;10.00;99.90
15630;DHT22;7914;50.842;0.166;2023-02-01T15:49:32;10.00;1.00
15630;DHT22;7914;50.842;0.166;2023-02-01T15:52:01;10.00;1.00
15630;DHT22;7914;50.842;0.166;2023-02-01T15:54:32;9.90;99.90
15630;DHT22;7914;50.842;0.166;2023-02-01T15:57:03;9.90;99.90
15630;DHT22;7914;50.842;0.166;2023-02-01T16:00:00;9.80;1.00
15630;DHT22;7914;50.842;0.166;2023-02-01T16:02:37;9.80;1.00
15630;DHT22;7914;50.842;0.166;2023-02-01T16:05:06;9.70;1.00
15630;DHT22;7914;50.842;0.166;2023-02-01T16:07:58;9.60;97.20
15630;DHT22;7914;50.842;0.166;2023-02-01T16:10:29;9.60;99.90
15630;DHT22;7914;50.842;0.166;2023-02-01T16:12:55;9.50;99.90
15630;DHT22;7914;50.842;0.166;2023-02-01T16:15:26;9.40;99.90
15630;DHT22;7914;50.842;0.166;2023-02-01T16:17:52;9.30;99.90
15630;DHT22;7914;50.842;0.166;2023-02-01T16:20:18;9.20;99.90
15630;DHT22;7914;50.842;0.166;2023-02-01T16:22:43;9.20;1.00
15630;DHT22;7914;50.842;0.166;2023-02-01T16:25:09;9.20;1.00
15630;DHT22;7914;50.842;0.166;2023-02-01T16:27:35;9.10;1.00
15630;DHT22;7914;50.842;0.166;2023-02-01T16:30:00;9.10;1.00
15630;DHT22;7914;50.842;0.166;2023-02-01T16:32:26;9.10;1.00
15630;DHT22;7914;50.842;0.166;2023-02-01T16:34:52;9.10;1.00
15630;DHT22;7914;50.842;0.166;2023-02-01T16:37:24;9.10;1.00
15630;DHT22;7914;50.842;0.166;2023-02-01T16:39:50;9.00;1.00
15630;DHT22;7914;50.842;0.166;2023-02-01T16:42:16;8.90;1.00
15630;DHT22;7914;50.842;0.166;2023-02-01T16:44:42;8.90;1.00
15630;DHT22;7914;50.842;0.166;2023-02-01T16:47:16;8.90;1.00
15630;DHT22;7914;50.842;0.166;2023-02-01T16:49:43;8.80;1.00
15630;DHT22;7914;50.842;0.166;2023-02-01T16:52:18;8.70;1.00
15630;DHT22;7914;50.842;0.166;2023-02-01T16:54:45;8.70;1.00
15630;DHT22;7914;50.842;0.166;2023-02-01T16:57:13;8.70;57.00
15630;DHT22;7914;50.842;0.166;2023-02-01T16:59:40;8.70;17.20
15630;DHT22;7914;50.842;0.166;2023-02-01T17:02:08;8.70;52.70
15630;DHT22;7914;50.842;0.166;2023-02-01T17:04:35;8.70;51.80
15630;DHT22;7914;50.842;0.166;2023-02-01T17:07:01;8.70;49.70
15630;DHT22;7914;50.842;0.166;2023-02-01T17:09:35;9.50;5.20
15630;DHT22;7914;50.842;0.166;2023-02-01T17:12:01;8.70;34.30
15630;DHT22;7914;50.842;0.166;2023-02-01T17:14:27;8.70;61.40
15630;DHT22;7914;50.842;0.166;2023-02-01T17:16:52;8.70;90.40
15630;DHT22;7914;50.842;0.166;2023-02-01T17:19:21;8.70;58.60
15630;DHT22;7914;50.842;0.166;2023-02-01T17:21:52;8.60;99.90
15630;DHT22;7914;50.842;0.166;2023-02-01T17:24:30;8.70;99.90
15630;DHT22;7914;50.842;0.166;2023-02-01T17:26:56;8.60;99.90
15630;DHT22;7914;50.842;0.166;2023-02-01T17:29:22;8.60;80.90
15630;DHT22;7914;50.842;0.166;2023-02-01T17:31:52;8.60;99.90
15630;DHT22;7914;50.842;0.166;2023-02-01T17:34:19;8.60;99.90
15630;DHT22;7914;50.842;0.166;2023-02-01T17:36:46;8.60;99.90
15630;DHT22;7914;50.842;0.166;2023-02-01T17:39:13;8.50;99.90
15630;DHT22;7914;50.842;0.166;2023-02-01T17:41:59;8.50;99.90
15630;DHT22;7914;50.842;0.166;2023-02-01T17:44:25;8.50;99.90
15630;DHT22;7914;50.842;0.166;2023-02-01T17:46:51;8.60;99.90
15630;DHT22;7914;50.842;0.166;2023-02-01T17:49:16;8.60;99.90
15630;DHT22;7914;50.842;0.166;2023-02-01T17:51:42;8.60;99.90
15630;DHT22;7914;50.842;0.166;2023-02-01T17:54:11;8.50;99.90
15630;DHT22;7914;50.842;0.166;2023-02-01T17:56:37;8.50;99.90
15630;DHT22;7914;50.842;0.166;2023-02-01T17:59:03;8.40;99.90
15630;DHT22;7914;50.842;0.166;2023-02-01T18:01:29;8.40;99.90
15630;DHT22;7914;50.842;0.166;2023-02-01T18:03:55;8.50;99.90
15630;DHT22;7914;50.842;0.166;2023-02-01T18:06:25;8.50;99.90
15630;DHT22;7914;50.842;0.166;2023-02-01T18:08:52;8.50;99.90
15630;DHT22;7914;50.842;0.166;2023-02-01T18:11:20;8.40;99.90
15630;DHT22;7914;50.842;0.166;2023-02-01T18:13:47;8.40;99.90
15630;DHT22;7914;50.842;0.166;2023-02-01T18:16:25;7.40;99.90
15630;DHT22;7914;50.842;0.166;2023-02-01T18:18:51;8.30;99.90
15630;DHT22;7914;50.842;0.166;2023-02-01T18:21:18;8.30;99.90
15630;DHT22;7914;50.842;0.166;2023-02-01T18:23:44;8.30;99.90
15630;DHT22;7914;50.842;0.166;2023-02-01T18:26:15;8.20;99.90
15630;DHT22;7914;50.842;0.166;2023-02-01T18:28:40;8.20;99.90
15630;DHT22;7914;50.842;0.166;2023-02-01T18:33:47;8.20;99.90
15630;DHT22;7914;50.842;0.166;2023-02-01T18:36:13;8.10;99.90
15630;DHT22;7914;50.842;0.166;2023-02-01T18:38:40;8.10;99.90